メインページ
METAR-TAF:

METAR-TAF

空港 :

レスブリッジ, アルバータ州, カナダ

緯度: 49-38N, 経度: 112-48W, 海抜: 929m

現時点の気象観測

当レポートは20分前の05:54(UTC)に作成
北西の風 13kt
気温 -5°C
湿度 86%
気圧 1010 hPa
視程: 14.5km
高度1100ftの雲は散在している
高度2000ftの曇り
小雪

METAR: CYQL 040554Z AUTO 32013KT 9SM -SN SCT011 OVC020 M05/M07 A2982 RMK SLP151

時間: 00:14 (06:14 UTC)

予報

当レポートは36分前の05:38(UTC)に作成
予報は04日の 06時(UTC)から 04日の 18時(UTC)まで有効
北西の風 12kt
視程: 10km
高度1200ftの曇り
04日の 06時(UTC)から 04日の 14時(UTC)まで一時的に
視程: 1.6km
高度800ftの曇り
弱いにわか雪
04日の 1400時(UTC)から
西/北西の風 12kt
視程: 10km
高度2500ftの千切れ雲あり
04日の 14時(UTC)から 04日の 18時(UTC)まで一時的に
視程: 6.4km
高度1500ftの千切れ雲あり
小雪

TAF: CYQL 040538Z 0406/0418 32012KT P6SM OVC012 TEMPO 0406/0414 1SM -SHSN OVC008 FM041400 29012KT P6SM BKN025 TEMPO 0414/0418 4SM -SN BKN015 RMK FCST BASED ON AUTO OBS. NXT FCST BY 041200Z

4,000以上の空港の気象観測と天気予報(METAR報とTAF報)

利用可能な観測所は地図上に黄色い丸と赤い丸で示す。

丸の上にカーソルを重ねると観測所名を参照できる。

次にクリックすると気象観測と天気予報を参照できる。

マップの切り替え:黒色「×」印の緑ボタンをクリックして拡大、「-」印の緑ボタンをクリックして縮小、緑色の三角印をクリックして隣りの地図に切り替え


METAR-TAF: